Time;durP1;ratioP1;P1;durP2;ratioP2;P2;SDS_P1;SDS_P2;PMS_P1;PMS_P2;Temp;Humidity;BMP_temperature;BMP_pressure;BME280_temperature;BME280_humidity;BME280_pressure;Samples;Min_cycle;Max_cycle;Signal;HPM_P1;HPM_P2
2022/01/12 00:00:39;;;;;;;26.75;13.05;;;;;;;2.29;78.33;103239.94;5057082;28;20101;-65
2022/01/12 00:03:06;;;;;;;30.13;13.33;;;;;;;2.27;78.04;103235.63;5072438;28;20033;-65
2022/01/12 00:05:33;;;;;;;27.75;12.98;;;;;;;2.30;78.16;103230.31;5071486;28;20291;-65
2022/01/12 00:08:01;;;;;;;38.00;13.05;;;;;;;2.26;78.31;103234.78;5067559;28;20063;-65
2022/01/12 00:10:28;;;;;;;26.08;12.60;;;;;;;2.26;78.12;103226.91;5061105;28;20044;-65
2022/01/12 00:12:54;;;;;;;30.35;12.50;;;;;;;2.25;77.99;103222.56;5026009;28;20036;-65
2022/01/12 00:15:21;;;;;;;28.20;13.10;;;;;;;2.23;78.02;103221.75;5057313;28;20037;-65
2022/01/12 00:17:48;;;;;;;29.70;13.98;;;;;;;2.19;78.04;103222.75;5053210;28;20051;-64
2022/01/12 00:20:14;;;;;;;29.98;12.77;;;;;;;2.07;78.54;103217.81;5055002;28;20045;-65
2022/01/12 00:22:42;;;;;;;26.55;12.95;;;;;;;2.10;78.39;103220.34;5036779;28;20049;-65
2022/01/12 00:33:34;;;;;;;24.20;12.02;;;;;;;2.03;77.94;103230.09;5069195;28;20040;-65
2022/01/12 00:36:02;;;;;;;26.35;12.50;;;;;;;1.96;78.10;103219.81;5069608;28;20497;-66
2022/01/12 00:38:29;;;;;;;29.13;13.25;;;;;;;1.94;78.70;103219.00;5051912;28;20069;-66
2022/01/12 00:40:59;;;;;;;27.05;13.10;;;;;;;1.80;78.64;103225.44;5069032;28;20045;-66
2022/01/12 00:43:28;;;;;;;27.33;13.30;;;;;;;1.66;79.35;103227.53;5068108;28;20601;-65
2022/01/12 00:45:56;;;;;;;27.13;12.45;;;;;;;1.70;79.35;103226.53;5067992;28;20120;-64
2022/01/12 00:48:23;;;;;;;25.52;12.90;;;;;;;1.66;79.38;103235.38;5069135;28;20041;-66
2022/01/12 00:50:50;;;;;;;28.05;13.00;;;;;;;1.72;79.60;103261.38;5067987;28;20068;-65
2022/01/12 00:53:18;;;;;;;26.90;12.40;;;;;;;1.76;79.71;103270.88;5068323;28;20490;-65
2022/01/12 00:55:45;;;;;;;30.23;13.32;;;;;;;1.73;79.23;103269.22;5067256;28;20041;-64
2022/01/12 00:58:12;;;;;;;27.83;12.70;;;;;;;1.73;79.98;103270.97;5069086;28;20056;-65
2022/01/12 01:00:39;;;;;;;30.33;13.23;;;;;;;1.69;79.79;103262.34;5051015;28;20051;-64
2022/01/12 01:03:07;;;;;;;27.85;12.55;;;;;;;1.65;79.77;103246.72;5068650;28;20048;-64
2022/01/12 01:05:36;;;;;;;29.95;12.88;;;;;;;1.72;79.79;103240.47;5065942;28;20075;-66
2022/01/12 01:08:03;;;;;;;32.17;13.70;;;;;;;1.75;79.68;103247.38;5056861;28;20144;-65
2022/01/12 01:10:45;;;;;;;27.40;13.23;;;;;;;1.76;79.24;103242.09;5064558;28;20087;-65
2022/01/12 01:13:20;;;;;;;28.35;12.05;;;;;;;1.80;78.63;103240.28;5051080;28;20048;-66
2022/01/12 01:26:44;;;;;;;27.75;13.65;;;;;;;1.63;79.91;103293.00;5060684;28;20524;-64
2022/01/12 01:29:11;;;;;;;26.42;13.05;;;;;;;1.66;79.88;103293.78;5066933;28;20091;-64
2022/01/12 01:31:40;;;;;;;30.45;12.88;;;;;;;1.68;80.21;103299.84;5065329;28;20041;-64
2022/01/12 01:34:10;;;;;;;27.08;12.88;;;;;;;1.67;80.21;103290.31;5068469;28;20049;-66
2022/01/12 01:36:42;;;;;;;28.37;13.30;;;;;;;1.66;79.88;103299.03;5051289;28;20090;-65
2022/01/12 01:39:12;;;;;;;30.80;13.97;;;;;;;1.79;80.30;103304.00;5054656;28;20044;-65
2022/01/12 01:41:42;;;;;;;27.25;13.80;;;;;;;1.78;79.83;103310.13;5053427;28;20044;-64
2022/01/12 01:55:05;;;;;;;28.23;13.25;;;;;;;1.87;79.64;103325.63;5047734;28;20128;-65
2022/01/12 01:57:33;;;;;;;27.70;12.75;;;;;;;1.87;79.57;103323.88;5063843;28;20135;-64
2022/01/12 02:00:04;;;;;;;25.23;12.18;;;;;;;1.95;79.68;103328.06;5048837;28;20535;-64
2022/01/12 02:02:37;;;;;;;28.77;12.57;;;;;;;1.95;79.75;103331.56;5048208;28;20124;-65
2022/01/12 02:05:05;;;;;;;28.23;14.05;;;;;;;1.97;79.30;103336.75;5052874;28;20041;-65
2022/01/12 02:07:33;;;;;;;27.98;12.82;;;;;;;1.99;79.14;103346.28;5053148;28;20048;-65
2022/01/12 02:10:02;;;;;;;29.75;13.57;;;;;;;2.00;79.51;103352.38;5053316;28;20045;-65
2022/01/12 02:12:46;;;;;;;26.77;11.95;;;;;;;2.04;79.54;103349.66;5054700;28;20040;-65
2022/01/12 02:15:18;;;;;;;28.33;13.27;;;;;;;2.08;79.26;103347.84;5054734;28;20532;-65
2022/01/12 02:40:46;;;;;;;22.90;11.60;;;;;;;1.91;78.64;103281.03;5039268;28;20055;-64
2022/01/12 02:43:28;;;;;;;28.73;12.73;;;;;;;2.00;78.34;103289.53;5053160;28;20037;-66
2022/01/12 02:51:33;;;;;;;28.33;12.10;;;;;;;1.85;79.25;103302.09;5033868;28;20503;-65
2022/01/12 02:54:00;;;;;;;22.85;11.38;;;;;;;1.90;79.33;103307.22;5034133;28;20038;-65
2022/01/12 02:56:31;;;;;;;28.92;12.30;;;;;;;1.89;78.59;103310.72;5033020;28;20059;-65
2022/01/12 02:58:59;;;;;;;25.52;11.65;;;;;;;1.84;79.20;103312.63;5047125;28;20565;-65
2022/01/12 03:04:09;;;;;;;25.30;11.88;;;;;;;1.82;79.07;103307.41;5073657;27;20858;-64
2022/01/12 03:06:39;;;;;;;22.95;10.80;;;;;;;1.79;79.06;103304.00;5069771;28;20092;-66
2022/01/12 03:09:09;;;;;;;22.75;12.18;;;;;;;1.81;78.71;103297.81;5069795;28;20405;-64
2022/01/12 03:11:37;;;;;;;27.60;12.55;;;;;;;1.80;78.76;103290.88;5068468;28;20132;-64
2022/01/12 03:14:19;;;;;;;26.05;11.52;;;;;;;1.89;78.78;103295.03;5070005;28;20140;-66
2022/01/12 03:16:46;;;;;;;27.38;11.80;;;;;;;1.85;78.88;103289.00;5069600;28;20037;-66
2022/01/12 03:19:19;;;;;;;22.70;11.27;;;;;;;1.86;78.71;103282.88;5084815;28;20523;-67
2022/01/12 03:21:45;;;;;;;26.90;12.02;;;;;;;1.96;78.34;103275.66;5069411;28;20128;-65
2022/01/12 03:24:14;;;;;;;26.58;11.40;;;;;;;1.89;78.21;103274.97;5069578;28;20493;-66
2022/01/12 03:26:41;;;;;;;25.95;11.23;;;;;;;1.77;78.16;103287.47;5069588;28;20106;-65
2022/01/12 03:29:10;;;;;;;24.95;11.70;;;;;;;1.75;78.63;103286.63;5068655;28;20175;-65
2022/01/12 03:31:38;;;;;;;22.15;11.68;;;;;;;1.79;78.74;103288.28;5068040;28;20086;-65
2022/01/12 03:34:08;;;;;;;31.55;11.75;;;;;;;1.67;79.67;103295.53;5067829;28;20041;-65
2022/01/12 03:39:10;;;;;;;;;;;;;;;1.84;78.83;103297.75;5068801;28;20524;-65
2022/01/12 03:41:40;;;;;;;23.50;10.70;;;;;;;1.81;78.61;103297.81;5069397;28;20408;-65
2022/01/12 03:44:09;;;;;;;23.17;11.18;;;;;;;1.79;79.50;103309.22;5069181;28;20064;-65
2022/01/12 03:46:44;;;;;;;23.85;11.43;;;;;;;1.86;78.48;103310.81;5067968;28;20040;-65
2022/01/12 03:49:14;;;;;;;25.20;11.70;;;;;;;1.81;79.10;103325.75;5069247;28;20041;-65
2022/01/12 03:51:42;;;;;;;23.48;10.85;;;;;;;1.87;79.06;103331.72;5069038;28;20041;-65
2022/01/12 03:54:09;;;;;;;25.05;10.65;;;;;;;1.89;79.31;103327.31;5068162;28;20052;-65
2022/01/12 03:56:37;;;;;;;21.30;10.63;;;;;;;1.94;78.95;103332.44;5067914;28;20044;-65
2022/01/12 03:59:05;;;;;;;22.92;10.82;;;;;;;1.97;79.24;103336.75;5067591;28;20497;-65
2022/01/12 04:01:34;;;;;;;28.60;10.88;;;;;;;2.02;78.69;103333.13;5068847;28;20048;-65
2022/01/12 04:04:07;;;;;;;23.83;10.82;;;;;;;2.10;78.77;103323.34;5065785;28;20143;-65
2022/01/12 04:09:32;;;;;;;22.95;11.70;;;;;;;2.11;78.79;103324.19;5068618;28;20532;-65
2022/01/12 04:11:59;;;;;;;23.20;11.10;;;;;;;2.12;78.35;103318.06;5068690;28;20048;-65
2022/01/12 04:14:26;;;;;;;27.17;11.55;;;;;;;2.04;78.90;103323.50;5060180;28;20045;-65
2022/01/12 04:16:52;;;;;;;21.10;11.07;;;;;;;2.08;78.78;103340.00;5055628;28;20048;-65
2022/01/12 04:19:20;;;;;;;21.15;10.88;;;;;;;1.99;79.04;103335.81;5055414;28;20045;-65
2022/01/12 04:21:49;;;;;;;26.15;11.50;;;;;;;2.08;79.29;103329.50;5070673;28;20041;-65
2022/01/12 04:24:16;;;;;;;24.92;11.43;;;;;;;2.08;78.22;103327.75;5055102;28;20087;-65
2022/01/12 04:26:44;;;;;;;26.48;11.95;;;;;;;2.15;78.88;103327.59;5054986;28;20098;-65
2022/01/12 04:29:11;;;;;;;22.75;11.02;;;;;;;2.16;78.35;103337.19;5055218;28;20402;-65
2022/01/12 04:31:38;;;;;;;22.23;11.48;;;;;;;2.13;79.11;103334.63;5046059;28;20042;-64
2022/01/12 04:34:06;;;;;;;22.38;10.75;;;;;;;2.21;78.94;103337.94;5035072;28;20503;-65
2022/01/12 04:36:33;;;;;;;22.67;11.30;;;;;;;2.23;78.38;103325.66;5035004;28;20046;-65
2022/01/12 04:39:00;;;;;;;27.38;11.75;;;;;;;2.27;78.37;103322.06;5035008;28;20645;-64
2022/01/12 04:41:27;;;;;;;24.25;10.80;;;;;;;2.18;78.48;103322.28;5035057;28;20076;-64
2022/01/12 04:43:56;;;;;;;23.77;11.73;;;;;;;2.25;78.05;103324.72;5042403;28;20429;-65
2022/01/12 04:46:29;;;;;;;23.80;11.20;;;;;;;2.23;78.44;103315.19;5054869;28;20508;-65
2022/01/12 04:49:19;;;;;;;25.83;12.10;;;;;;;2.25;78.40;103319.47;5054858;28;20091;-65
2022/01/12 04:51:43;;;;;;;22.77;10.90;;;;;;;2.29;77.76;103322.88;5054789;28;20048;-65
2022/01/12 04:54:10;;;;;;;23.38;12.15;;;;;;;2.26;77.75;103320.38;5053456;28;20037;-65
2022/01/12 04:56:37;;;;;;;25.27;11.48;;;;;;;2.29;78.29;103334.25;5053581;28;20045;-65
2022/01/12 04:59:04;;;;;;;23.50;11.32;;;;;;;2.30;78.08;103340.34;5053615;28;20048;-65
2022/01/12 05:01:36;;;;;;;24.98;11.25;;;;;;;2.24;78.13;103346.59;5054685;28;20068;-65
2022/01/12 05:07:08;;;;;;;22.73;10.55;;;;;;;2.32;78.10;103363.88;5053316;28;20377;-64
2022/01/12 05:15:06;;;;;;;21.90;11.52;;;;;;;2.24;78.01;103371.94;5110412;28;20044;-66
2022/01/12 05:17:34;;;;;;;24.05;11.25;;;;;;;2.22;77.90;103353.63;5109398;28;20066;-65
2022/01/12 05:20:01;;;;;;;20.85;11.45;;;;;;;2.29;78.03;103354.31;5109286;28;20071;-66
2022/01/12 05:22:28;;;;;;;22.85;11.07;;;;;;;2.26;78.62;103349.19;5109149;28;20126;-66
2022/01/12 05:24:55;;;;;;;21.00;11.60;;;;;;;2.37;77.91;103357.63;5110125;28;20056;-66
2022/01/12 05:27:25;;;;;;;25.13;11.95;;;;;;;2.46;77.22;103353.94;5110341;28;20051;-65
2022/01/12 05:29:52;;;;;;;25.67;11.60;;;;;;;2.42;77.79;103347.91;5109121;28;20040;-66
2022/01/12 05:32:18;;;;;;;26.45;12.00;;;;;;;2.41;78.09;103356.66;5107184;28;20043;-66
2022/01/12 05:34:46;;;;;;;22.17;11.05;;;;;;;2.44;77.71;103359.22;5109096;28;20082;-65
2022/01/12 05:37:13;;;;;;;22.15;11.40;;;;;;;2.41;77.58;103359.28;5109938;28;20063;-66
2022/01/12 05:39:40;;;;;;;24.70;11.05;;;;;;;2.36;77.83;103361.13;5110281;28;20443;-66
2022/01/12 05:42:23;;;;;;;26.10;11.57;;;;;;;2.35;78.18;103341.09;5110217;28;20058;-66
2022/01/12 05:44:50;;;;;;;23.88;11.80;;;;;;;2.43;77.38;103352.25;5108828;28;20117;-66
2022/01/12 05:47:33;;;;;;;28.13;11.73;;;;;;;2.42;77.21;103358.41;5092028;28;20050;-65
2022/01/12 05:50:00;;;;;;;25.05;11.15;;;;;;;2.46;77.24;103348.69;5109946;28;20048;-65
2022/01/12 05:52:27;;;;;;;22.33;11.30;;;;;;;2.51;76.72;103346.84;5108794;28;20055;-66
2022/01/12 05:54:54;;;;;;;22.45;11.77;;;;;;;2.41;76.75;103356.66;5108687;28;20079;-66
2022/01/12 05:57:21;;;;;;;28.90;11.73;;;;;;;2.38;77.74;103363.72;5091717;28;20051;-66
2022/01/12 05:59:48;;;;;;;28.10;11.80;;;;;;;2.34;77.63;103360.31;5092151;28;20047;-66
2022/01/12 06:02:14;;;;;;;22.42;11.70;;;;;;;2.38;77.92;103350.63;5091242;28;20093;-65
2022/01/12 06:04:41;;;;;;;24.13;11.60;;;;;;;2.43;77.58;103348.75;5100579;28;20509;-65
2022/01/12 06:07:08;;;;;;;26.63;11.95;;;;;;;2.41;77.34;103350.56;5104843;28;20071;-65
2022/01/12 06:09:35;;;;;;;25.30;11.40;;;;;;;2.37;77.79;103344.53;5109126;28;20051;-65
2022/01/12 06:12:02;;;;;;;22.20;10.80;;;;;;;2.43;77.74;103349.63;5091100;28;20044;-65
2022/01/12 06:14:30;;;;;;;24.73;11.98;;;;;;;2.52;77.40;103345.06;5108113;28;20079;-65
2022/01/12 06:16:58;;;;;;;23.55;11.70;;;;;;;2.53;77.52;103346.78;5109394;28;20048;-65
2022/01/12 06:19:25;;;;;;;26.60;12.90;;;;;;;2.63;76.69;103333.41;5108972;28;20105;-65
2022/01/12 06:22:05;;;;;;;29.63;11.65;;;;;;;2.55;77.38;103340.59;5104057;28;20505;-65
2022/01/12 06:24:33;;;;;;;23.45;11.73;;;;;;;2.52;77.07;103340.69;5095488;28;20083;-65
2022/01/12 06:27:01;;;;;;;26.25;11.75;;;;;;;2.54;nan;103346.75;5095168;28;20485;-65
2022/01/12 06:30:01;;;;;;;24.10;11.85;;;;;;;2.46;77.79;103360.03;5095468;28;20044;-65
2022/01/12 06:32:16;;;;;;;22.73;11.50;;;;;;;2.45;77.51;103357.44;5095462;28;20071;-65
2022/01/12 06:34:43;;;;;;;25.20;11.90;;;;;;;2.44;77.64;103353.97;5093642;28;20048;-65
2022/01/12 06:37:11;;;;;;;27.52;11.63;;;;;;;2.41;78.20;103353.19;5077695;28;20051;-66
2022/01/12 06:39:37;;;;;;;35.65;12.52;;;;;;;2.45;78.00;103362.69;5077387;28;20408;-65
2022/01/12 06:42:05;;;;;;;25.73;12.10;;;;;;;2.46;78.09;103372.28;5095242;28;20040;-66
2022/01/12 06:44:33;;;;;;;29.45;12.27;;;;;;;2.48;77.71;103363.47;5095014;28;20143;-65
2022/01/12 06:47:03;;;;;;;32.58;14.18;;;;;;;2.46;78.11;103369.66;5095069;28;20050;-64
2022/01/12 06:49:31;;;;;;;26.27;12.18;;;;;;;2.49;77.93;103374.81;5094563;28;20089;-64
2022/01/12 06:52:00;;;;;;;24.73;12.07;;;;;;;2.53;77.89;103371.25;5094238;28;20103;-66
2022/01/12 06:54:27;;;;;;;23.00;12.13;;;;;;;2.57;77.58;103379.88;5093040;28;20442;-67
2022/01/12 06:56:54;;;;;;;28.02;11.82;;;;;;;2.58;77.56;103384.22;5076407;28;20146;-66
2022/01/12 06:59:20;;;;;;;29.75;11.80;;;;;;;2.64;77.27;103387.56;5094532;28;20044;-64
2022/01/12 07:01:48;;;;;;;21.38;11.98;;;;;;;2.61;77.60;103376.28;5094286;28;20036;-66
2022/01/12 07:04:24;;;;;;;27.27;11.98;;;;;;;2.64;76.92;103384.09;5076390;28;20135;-65
2022/01/12 07:06:51;;;;;;;28.80;12.90;;;;;;;2.53;77.08;103393.94;5094362;28;20036;-65
2022/01/12 07:09:20;;;;;;;24.85;12.20;;;;;;;2.56;77.30;103394.72;5094783;28;20044;-65
2022/01/12 07:11:55;;;;;;;28.23;12.57;;;;;;;2.57;77.62;103395.63;5094229;28;20056;-65
2022/01/12 07:14:27;;;;;;;28.67;12.80;;;;;;;2.56;77.58;103399.13;5093799;28;20052;-65
2022/01/12 07:16:55;;;;;;;26.63;12.02;;;;;;;2.49;77.79;103399.28;5093269;28;20068;-65
2022/01/12 07:19:23;;;;;;;27.85;12.18;;;;;;;2.60;78.28;103416.47;5093078;28;20062;-65
2022/01/12 07:21:50;;;;;;;25.00;13.00;;;;;;;2.60;78.02;103408.63;5093418;28;20040;-65
2022/01/12 07:24:17;;;;;;;29.33;12.68;;;;;;;2.63;77.64;103411.19;5093323;28;20054;-64
2022/01/12 07:26:46;;;;;;;28.35;12.70;;;;;;;2.58;77.26;103424.38;5094293;28;20036;-64
2022/01/12 07:29:13;;;;;;;28.98;12.02;;;;;;;2.62;77.25;103428.66;5093409;28;20109;-66
2022/01/12 07:31:39;;;;;;;28.92;12.70;;;;;;;2.66;77.20;103432.94;5092180;28;20044;-66
2022/01/12 07:34:06;;;;;;;26.15;12.68;;;;;;;2.65;77.47;103451.31;5093476;28;20051;-66
2022/01/12 07:36:33;;;;;;;29.30;12.80;;;;;;;2.74;77.24;103455.47;5094193;28;20047;-66
2022/01/12 07:39:00;;;;;;;26.67;12.77;;;;;;;2.77;77.28;103465.91;5094244;28;20046;-66
2022/01/12 07:41:26;;;;;;;27.25;12.80;;;;;;;2.71;77.67;103471.28;5093057;28;20067;-64
2022/01/12 07:43:53;;;;;;;29.35;12.45;;;;;;;2.70;77.20;103483.53;5076018;28;20432;-64
2022/01/12 07:46:21;;;;;;;32.33;13.45;;;;;;;2.73;77.68;103488.72;5092068;28;20093;-64
2022/01/12 07:48:48;;;;;;;27.90;12.23;;;;;;;2.75;77.07;103488.66;5073758;28;20044;-64
2022/01/12 07:51:15;;;;;;;30.02;13.00;;;;;;;2.79;77.29;103499.03;5072165;28;20047;-66
2022/01/12 07:53:41;;;;;;;25.48;12.60;;;;;;;2.73;77.33;103487.81;5073675;28;20049;-64
2022/01/12 07:56:08;;;;;;;24.60;11.82;;;;;;;2.73;77.66;103488.72;5072410;28;20440;-64
2022/01/12 07:58:35;;;;;;;28.17;12.77;;;;;;;2.76;77.28;103483.38;5073666;28;20051;-64
2022/01/12 08:01:02;;;;;;;25.10;12.82;;;;;;;2.58;78.08;103481.19;5077943;28;20350;-64
2022/01/12 08:03:29;;;;;;;29.02;13.20;;;;;;;2.63;77.65;103485.41;5091927;28;20122;-64
2022/01/12 08:05:57;;;;;;;28.40;12.65;;;;;;;2.69;77.33;103490.53;5093494;28;20500;-64
2022/01/12 08:08:23;;;;;;;27.27;12.35;;;;;;;2.75;77.44;103493.88;5093676;28;20040;-64
2022/01/12 08:10:50;;;;;;;27.88;13.15;;;;;;;2.72;77.57;103491.34;5091891;28;20063;-64
2022/01/12 08:13:17;;;;;;;24.77;12.82;;;;;;;2.63;76.26;103492.44;5092221;28;20047;-64
2022/01/12 08:15:44;;;;;;;23.48;12.27;;;;;;;2.66;76.72;103487.13;5074973;28;20413;-64
2022/01/12 08:18:10;;;;;;;25.02;13.02;;;;;;;2.68;77.00;103482.72;5093543;28;20413;-64
2022/01/12 08:20:37;;;;;;;29.00;12.43;;;;;;;2.65;77.72;103480.16;5095595;28;20047;-64
2022/01/12 08:23:04;;;;;;;28.40;13.20;;;;;;;2.74;77.38;103493.03;5098357;28;20451;-64
2022/01/12 08:25:30;;;;;;;27.15;13.80;;;;;;;2.69;77.46;103493.16;5096326;28;20043;-64
2022/01/12 08:27:57;;;;;;;29.30;14.07;;;;;;;2.77;77.59;103497.38;5094250;28;20060;-64
2022/01/12 08:30:29;;;;;;;29.45;13.85;;;;;;;2.83;77.39;103497.22;5110439;27;20050;-66
2022/01/12 08:32:56;;;;;;;28.42;13.38;;;;;;;2.92;77.32;103506.63;5084711;27;20407;-66
2022/01/12 08:35:24;;;;;;;29.05;12.98;;;;;;;2.94;77.32;103507.44;5106172;28;20068;-64
2022/01/12 08:37:51;;;;;;;32.17;12.93;;;;;;;2.95;76.49;103512.66;5106440;27;20048;-66
2022/01/12 08:40:19;;;;;;;28.33;13.43;;;;;;;2.96;77.09;103516.97;5085573;28;20040;-65
2022/01/12 08:42:46;;;;;;;30.70;13.57;;;;;;;3.15;76.52;103527.06;5079226;28;20376;-68
2022/01/12 08:45:15;;;;;;;30.50;12.65;;;;;;;3.32;75.47;103524.84;5089527;28;20047;-65
2022/01/12 08:47:43;;;;;;;32.55;14.07;;;;;;;3.22;75.57;103524.25;5079404;28;20051;-68
2022/01/12 08:50:11;;;;;;;32.35;13.80;;;;;;;3.12;76.32;103530.59;5073470;28;20037;-65
2022/01/12 08:52:44;;;;;;;29.88;13.02;;;;;;;3.02;76.69;103526.47;5095195;28;20468;-65
2022/01/12 08:55:13;;;;;;;27.65;13.35;;;;;;;2.98;77.47;103522.19;5102214;28;20046;-65
2022/01/12 08:57:39;;;;;;;45.38;19.35;;;;;;;3.16;75.70;103524.38;5109507;28;20060;-65
2022/01/12 09:00:08;;;;;;;34.13;13.05;;;;;;;2.95;76.74;103530.13;5094612;28;20040;-65
2022/01/12 09:02:35;;;;;;;27.50;13.43;;;;;;;2.88;77.51;103524.19;5093336;28;20042;-67
2022/01/12 09:05:04;;;;;;;33.35;13.35;;;;;;;2.91;77.82;103537.25;5075827;28;20056;-67
2022/01/12 09:07:31;;;;;;;34.35;13.18;;;;;;;2.88;78.24;103546.03;5104882;28;20054;-65
2022/01/12 09:09:58;;;;;;;29.40;13.82;;;;;;;2.94;78.25;103554.66;5096396;28;20109;-67
2022/01/12 09:12:25;;;;;;;33.33;13.30;;;;;;;3.12;76.96;103551.59;5106037;28;20060;-65
2022/01/12 09:14:53;;;;;;;26.23;12.18;;;;;;;3.14;76.05;103556.81;5098690;28;20051;-66
2022/01/12 09:17:22;;;;;;;26.90;12.43;;;;;;;2.93;77.58;103566.91;5097743;28;20496;-66
2022/01/12 09:19:51;;;;;;;27.48;12.63;;;;;;;2.96;77.48;103558.94;5096125;28;20116;-66
2022/01/12 09:22:18;;;;;;;34.22;13.82;;;;;;;2.95;78.44;103558.97;5101048;28;20028;-65
2022/01/12 09:24:46;;;;;;;34.00;12.55;;;;;;;2.90;78.16;103566.97;5102777;28;20508;-65
2022/01/12 09:27:13;;;;;;;32.00;13.23;;;;;;;2.84;78.45;103567.97;5097289;28;20400;-65
2022/01/12 09:29:42;;;;;;;31.38;12.95;;;;;;;2.79;78.51;103575.06;5095980;28;20060;-66
2022/01/12 09:32:09;;;;;;;29.45;12.75;;;;;;;2.87;78.56;103577.50;5092305;28;20100;-68
2022/01/12 09:34:36;;;;;;;32.45;13.20;;;;;;;2.90;79.53;103569.59;5102902;28;20484;-66
2022/01/12 09:37:04;;;;;;;30.85;12.55;;;;;;;2.81;79.10;103570.66;5101893;28;20131;-65
2022/01/12 09:39:34;;;;;;;34.22;12.73;;;;;;;2.90;78.62;103572.22;5087998;28;20400;-65
2022/01/12 09:42:01;;;;;;;28.23;12.80;;;;;;;2.93;78.33;103568.66;5075098;28;20036;-67
2022/01/12 09:44:31;;;;;;;33.33;12.75;;;;;;;2.54;79.73;103573.88;5089691;28;20044;-68
2022/01/12 09:47:00;;;;;;;29.25;13.00;;;;;;;2.48;80.65;103567.88;5097178;28;20055;-66
2022/01/12 09:49:29;;;;;;;34.03;12.88;;;;;;;2.58;80.87;103567.66;5098838;28;20560;-67
2022/01/12 09:51:57;;;;;;;38.30;14.05;;;;;;;2.63;80.85;103564.06;5108372;28;20036;-66
2022/01/12 09:54:26;;;;;;;32.83;14.20;;;;;;;2.63;80.72;103565.81;5089749;28;20381;-65
2022/01/12 09:56:53;;;;;;;45.97;14.57;;;;;;;2.66;80.55;103577.09;5081249;28;20042;-64
2022/01/12 09:59:21;;;;;;;37.70;14.25;;;;;;;2.67;80.87;103576.22;5095395;28;20043;-64
2022/01/12 10:01:49;;;;;;;40.33;14.00;;;;;;;2.73;81.02;103571.72;5094311;28;20036;-65
2022/01/12 10:04:19;;;;;;;44.78;14.75;;;;;;;2.64;81.43;103570.19;5093253;28;20062;-65
2022/01/12 10:06:49;;;;;;;47.22;14.45;;;;;;;2.50;82.59;103570.47;5092705;28;20051;-64
2022/01/12 10:09:21;;;;;;;57.38;16.88;;;;;;;2.66;82.88;103566.63;5097389;28;20043;-64
2022/01/12 10:11:50;;;;;;;47.50;16.45;;;;;;;2.61;82.21;103567.63;5099166;27;20485;-65
2022/01/12 10:14:20;;;;;;;47.35;16.33;;;;;;;2.58;82.68;103567.66;5096834;28;20039;-65
2022/01/12 10:16:56;;;;;;;48.13;15.50;;;;;;;2.44;83.19;103575.84;5093803;28;20123;-64
2022/01/12 10:19:26;;;;;;;42.90;16.20;;;;;;;2.45;83.91;103577.56;5093947;28;20158;-65
2022/01/12 10:21:53;;;;;;;50.38;16.75;;;;;;;2.41;84.27;103573.28;5077828;28;20497;-67
2022/01/12 10:24:20;;;;;;;61.35;17.17;;;;;;;2.48;84.11;103565.25;5091402;28;20040;-64
2022/01/12 10:26:49;;;;;;;67.13;16.50;;;;;;;2.55;83.79;103567.72;5087866;28;20140;-65
2022/01/12 10:29:20;;;;;;;55.38;18.13;;;;;;;2.60;83.63;103568.50;5092736;28;20123;-65
2022/01/12 10:31:58;;;;;;;51.95;16.42;;;;;;;2.78;83.50;103573.34;5072026;28;20128;-65
2022/01/12 10:34:28;;;;;;;63.40;17.65;;;;;;;2.67;83.10;103573.59;5094235;28;20076;-65
2022/01/12 10:36:57;;;;;;;62.20;17.55;;;;;;;2.65;83.63;103577.97;5093321;28;20624;-65
2022/01/12 10:39:27;;;;;;;54.33;17.02;;;;;;;2.83;83.63;103583.72;5094322;28;20044;-65
2022/01/12 10:42:00;;;;;;;52.30;16.42;;;;;;;2.71;83.56;103578.75;5091602;28;20036;-65
2022/01/12 10:44:31;;;;;;;64.10;18.08;;;;;;;2.77;83.49;103581.25;5102018;28;20040;-64
2022/01/12 10:50:03;;;;;;;60.08;18.13;;;;;;;2.54;85.00;103586.97;5070830;28;20522;-65
2022/01/12 10:52:37;;;;;;;61.53;18.75;;;;;;;2.52;84.90;103588.78;5067011;28;20128;-66
2022/01/12 10:55:07;;;;;;;61.03;19.15;;;;;;;2.59;84.87;103586.00;5047192;28;20070;-66
2022/01/12 10:57:38;;;;;;;59.58;17.98;;;;;;;2.56;85.13;103585.19;5065591;28;20040;-65
2022/01/12 11:00:23;;;;;;;54.15;18.27;;;;;;;2.53;85.09;103578.28;5046855;28;20037;-66
2022/01/12 11:02:53;;;;;;;55.83;17.85;;;;;;;2.54;84.92;103593.06;5050135;28;20446;-65
2022/01/12 11:05:22;;;;;;;61.33;18.35;;;;;;;2.64;85.10;103597.25;5048016;28;20483;-65
2022/01/12 11:07:49;;;;;;;52.63;17.45;;;;;;;2.71;84.67;103599.72;5050875;28;20049;-66
2022/01/12 11:10:18;;;;;;;58.47;18.33;;;;;;;2.68;84.91;103601.53;5050181;28;20404;-65
2022/01/12 11:12:47;;;;;;;57.83;19.58;;;;;;;2.75;84.67;103596.13;5067682;28;20065;-65
2022/01/12 11:15:16;;;;;;;54.92;19.75;;;;;;;2.74;84.92;103583.94;5061703;28;20059;-65
2022/01/12 11:17:45;;;;;;;70.07;23.15;;;;;;;2.72;85.47;103589.22;5048887;28;20378;-65
2022/01/12 11:20:24;;;;;;;72.88;22.98;;;;;;;2.84;84.86;103601.19;5046043;28;20041;-65
2022/01/12 11:23:12;;;;;;;77.43;23.00;;;;;;;3.16;84.36;103600.44;5065690;28;20517;-65
2022/01/12 11:28:23;;;;;;;89.55;29.45;;;;;;;2.81;85.89;103593.41;5084014;27;20398;-66
2022/01/12 11:36:20;;;;;;;106.35;30.50;;;;;;;2.95;86.20;103596.56;5147603;27;20171;-66
2022/01/12 11:39:00;;;;;;;107.35;31.48;;;;;;;2.91;86.74;103599.28;5120926;27;20078;-65
2022/01/12 11:41:30;;;;;;;114.05;32.63;;;;;;;3.05;86.32;103603.31;5124656;27;20043;-65
2022/01/12 11:44:16;;;;;;;109.38;32.10;;;;;;;3.10;85.81;103597.13;5106727;27;20044;-64
2022/01/12 11:46:47;;;;;;;113.40;34.20;;;;;;;3.12;85.87;103608.44;5124897;27;20158;-66
2022/01/12 11:49:39;;;;;;;114.97;31.45;;;;;;;3.07;86.18;103605.91;5120711;27;20043;-65
2022/01/12 11:52:26;;;;;;;101.07;32.63;;;;;;;3.04;86.05;103599.00;5092769;28;20135;-75
2022/01/12 11:55:15;;;;;;;95.55;31.75;;;;;;;3.26;86.31;103606.38;5123493;28;20042;-69
2022/01/12 11:57:48;;;;;;;98.68;32.35;;;;;;;3.48;84.83;103592.72;5123521;28;20036;-63
